Time;durP1;ratioP1;P1;durP2;ratioP2;P2;SDS_P1;SDS_P2;PMS_P1;PMS_P2;Temp;Humidity;BMP_temperature;BMP_pressure;BME280_temperature;BME280_humidity;BME280_pressure;Samples;Min_cycle;Max_cycle;Signal;HPM_P1;HPM_P2
2023/01/13 00:01:23;;;;;;;0.80;0.80;;;8.90;99.90;;;;;;5067811;28;20048;-72
2023/01/13 00:03:48;;;;;;;0.55;0.52;;;8.90;99.90;;;;;;5076043;28;20093;-72
2023/01/13 00:06:17;;;;;;;0.10;0.10;;;8.90;99.90;;;;;;5056801;28;20037;-72
2023/01/13 00:08:43;;;;;;;17.90;2.67;;;8.80;99.90;;;;;;5071648;28;20127;-72
2023/01/13 00:11:10;;;;;;;0.10;0.10;;;8.80;99.90;;;;;;5082426;28;20579;-72
2023/01/13 00:13:37;;;;;;;0.20;0.20;;;8.80;99.90;;;;;;5053587;28;20590;-72
2023/01/13 00:16:09;;;;;;;0.28;0.28;;;8.80;99.90;;;;;;5071352;28;20051;-72
2023/01/13 00:18:37;;;;;;;0.60;0.60;;;8.70;99.90;;;;;;5089789;28;20051;-72
2023/01/13 00:21:10;;;;;;;1.75;1.65;;;8.80;99.90;;;;;;5082794;28;20083;-72
2023/01/13 00:23:36;;;;;;;0.10;0.10;;;8.70;99.90;;;;;;5085814;28;20036;-72
2023/01/13 00:26:05;;;;;;;1.17;1.17;;;8.70;99.90;;;;;;5080772;28;20071;-72
2023/01/13 00:28:31;;;;;;;9.63;2.10;;;8.80;99.90;;;;;;5084954;28;20403;-72
2023/01/13 00:31:07;;;;;;;15.00;3.75;;;8.70;99.90;;;;;;5090242;28;20044;-72
2023/01/13 00:33:33;;;;;;;0.20;0.20;;;8.70;99.90;;;;;;5066728;28;20049;-72
2023/01/13 00:36:00;;;;;;;0.10;0.10;;;8.60;99.90;;;;;;5060108;28;20050;-72
2023/01/13 00:38:26;;;;;;;8.60;3.35;;;8.60;99.90;;;;;;5094728;28;20055;-72
2023/01/13 00:41:00;;;;;;;1.95;1.75;;;8.60;99.90;;;;;;5081977;28;20051;-73
2023/01/13 00:43:28;;;;;;;1.67;1.20;;;8.60;99.90;;;;;;5081257;28;20039;-73
2023/01/13 00:48:34;;;;;;;3.22;2.95;;;8.60;99.90;;;;;;5135898;27;20401;-72
2023/01/13 00:51:05;;;;;;;5.78;3.40;;;8.60;99.90;;;;;;5099864;28;20086;-72
2023/01/13 00:53:37;;;;;;;3.22;2.63;;;8.60;99.90;;;;;;5115174;28;20104;-72
2023/01/13 00:56:23;;;;;;;1.15;0.98;;;8.60;99.90;;;;;;5125507;28;20788;-72
2023/01/13 00:58:50;;;;;;;0.20;0.20;;;8.60;99.90;;;;;;5120188;28;20058;-72
2023/01/13 01:01:19;;;;;;;8.57;4.47;;;8.60;99.90;;;;;;5108191;28;20495;-72
2023/01/13 01:03:53;;;;;;;1.95;0.47;;;8.50;99.90;;;;;;5106782;28;20040;-72
2023/01/13 01:06:21;;;;;;;12.18;4.75;;;8.50;99.90;;;;;;5107252;28;20058;-72
2023/01/13 01:08:47;;;;;;;68.75;3.00;;;8.50;99.90;;;;;;5097023;28;20062;-72
2023/01/13 01:11:18;;;;;;;1.35;1.27;;;8.50;99.90;;;;;;5113541;28;20039;-72
2023/01/13 01:13:45;;;;;;;2.10;1.90;;;8.40;99.90;;;;;;5108793;28;20069;-71
2023/01/13 01:16:13;;;;;;;0.10;0.10;;;8.40;99.90;;;;;;5106517;28;20040;-72
2023/01/13 01:18:41;;;;;;;1.33;1.23;;;8.40;99.90;;;;;;5108655;28;20158;-72
2023/01/13 01:21:07;;;;;;;0.15;0.15;;;8.40;99.90;;;;;;5117990;28;20036;-72
2023/01/13 01:23:34;;;;;;;30.98;1.95;;;8.40;99.90;;;;;;5109935;28;20047;-72
2023/01/13 01:26:15;;;;;;;0.10;0.10;;;8.40;99.90;;;;;;5088335;28;20560;-72
2023/01/13 01:28:41;;;;;;;2.05;1.85;;;8.40;99.90;;;;;;5126575;28;20487;-72
2023/01/13 01:31:13;;;;;;;3.15;2.90;;;8.40;99.90;;;;;;5116890;28;20051;-72
2023/01/13 01:33:40;;;;;;;2.00;1.85;;;8.40;99.90;;;;;;5105824;28;20440;-72
2023/01/13 01:36:06;;;;;;;0.28;0.25;;;8.40;99.90;;;;;;5106982;28;20053;-72
2023/01/13 01:38:32;;;;;;;3.95;2.20;;;8.40;99.90;;;;;;5107683;28;20054;-72
2023/01/13 01:40:58;;;;;;;0.45;0.45;;;8.40;99.90;;;;;;5122374;28;20035;-72
2023/01/13 01:43:58;;;;;;;4.85;1.77;;;8.50;99.90;;;;;;5117978;28;20051;-72
2023/01/13 01:46:28;;;;;;;0.15;0.15;;;8.40;99.90;;;;;;5107532;28;20043;-71
2023/01/13 01:48:59;;;;;;;0.40;0.40;;;8.40;99.90;;;;;;5127498;28;20414;-72
2023/01/13 01:51:28;;;;;;;1.60;1.58;;;8.50;99.90;;;;;;5107716;28;20047;-72
2023/01/13 01:53:57;;;;;;;0.40;0.35;;;8.60;99.90;;;;;;5124788;27;20051;-72
2023/01/13 01:56:22;;;;;;;0.65;0.65;;;8.60;99.90;;;;;;5104970;28;20049;-72
2023/01/13 01:58:50;;;;;;;0.10;0.10;;;8.60;99.90;;;;;;5100709;28;20422;-72
2023/01/13 02:01:17;;;;;;;2.63;2.47;;;8.60;99.90;;;;;;5102727;27;20040;-72
2023/01/13 02:03:51;;;;;;;2.13;1.00;;;8.60;99.90;;;;;;5101099;28;20086;-72
2023/01/13 02:06:17;;;;;;;1.20;0.75;;;8.60;99.90;;;;;;5109204;27;20080;-71
2023/01/13 02:08:43;;;;;;;0.10;0.10;;;8.60;99.90;;;;;;5110686;28;20092;-72
2023/01/13 02:14:14;;;;;;;0.32;0.32;;;8.60;99.90;;;;;;5111817;28;20047;-71
2023/01/13 02:16:48;;;;;;;0.10;0.10;;;8.60;99.90;;;;;;5111613;28;20028;-72
2023/01/13 02:19:29;;;;;;;3.45;3.20;;;8.50;99.90;;;;;;5102315;28;20100;-71
2023/01/13 02:22:39;;;;;;;4.07;3.08;;;8.50;99.90;;;;;;5100462;28;20035;-70
2023/01/13 02:25:13;;;;;;;1.48;1.40;;;8.50;99.90;;;;;;5095290;28;20499;-72
2023/01/13 02:28:12;;;;;;;0.65;0.65;;;8.50;99.90;;;;;;5078517;28;20067;-71
2023/01/13 02:33:29;;;;;;;0.10;0.10;;;8.50;99.90;;;;;;5110661;28;20039;-71
2023/01/13 02:36:09;;;;;;;8.30;3.03;;;8.50;99.90;;;;;;5110036;28;20074;-72
2023/01/13 02:39:09;;;;;;;0.20;0.20;;;8.50;99.90;;;;;;5092285;28;20398;-72
2023/01/13 02:44:30;;;;;;;0.30;0.30;;;8.50;99.90;;;;;;5099005;28;20048;-72
2023/01/13 02:47:09;;;;;;;0.45;0.45;;;8.50;99.90;;;;;;5102221;28;20059;-71
2023/01/13 02:49:45;;;;;;;6.10;1.52;;;8.50;99.90;;;;;;5110113;28;20056;-72
2023/01/13 02:52:23;;;;;;;0.45;0.45;;;8.40;99.90;;;;;;5089791;28;20060;-72
2023/01/13 02:54:56;;;;;;;2.17;1.10;;;8.40;99.90;;;;;;5102782;28;20040;-71
2023/01/13 02:57:24;;;;;;;1.00;1.00;;;8.40;99.90;;;;;;5095311;28;20546;-72
2023/01/13 02:59:53;;;;;;;0.77;0.77;;;8.40;99.90;;;;;;5102874;28;20051;-72
2023/01/13 03:02:20;;;;;;;2.78;2.35;;;8.40;99.90;;;;;;5107561;28;20488;-73
2023/01/13 03:04:49;;;;;;;7.03;2.83;;;8.50;99.90;;;;;;5096741;28;20054;-72
2023/01/13 03:07:59;;;;;;;0.50;0.50;;;8.50;99.90;;;;;;5111906;28;20036;-72
2023/01/13 03:10:29;;;;;;;1.05;1.00;;;8.70;99.90;;;;;;5106044;27;20161;-72
2023/01/13 03:13:12;;;;;;;0.30;0.30;;;8.70;99.90;;;;;;5098524;28;20530;-72
2023/01/13 03:16:19;;;;;;;18.60;1.37;;;8.70;99.90;;;;;;5108070;28;20040;-72
2023/01/13 03:19:10;;;;;;;1.75;1.05;;;8.70;99.90;;;;;;5087984;28;20320;-72
2023/01/13 03:21:57;;;;;;;17.20;1.48;;;8.80;99.90;;;;;;5085860;28;20048;-72
2023/01/13 03:24:36;;;;;;;0.10;0.10;;;8.70;99.90;;;;;;5097736;28;20437;-73
2023/01/13 03:27:20;;;;;;;0.63;0.63;;;8.80;99.90;;;;;;5092330;28;20475;-72
2023/01/13 03:29:49;;;;;;;0.03;0.03;;;8.70;99.90;;;;;;5096722;28;20040;-72
2023/01/13 03:32:23;;;;;;;0.75;0.75;;;8.60;99.90;;;;;;5086002;28;20614;-72
2023/01/13 03:34:52;;;;;;;0.17;0.17;;;8.60;99.90;;;;;;5099693;28;20118;-72
2023/01/13 03:37:22;;;;;;;0.10;0.10;;;8.60;99.90;;;;;;5098494;28;20107;-72
2023/01/13 03:39:54;;;;;;;0.60;0.60;;;8.60;99.90;;;;;;5091592;28;20086;-72
2023/01/13 03:42:23;;;;;;;0.10;0.10;;;8.60;99.90;;;;;;5082224;28;20048;-72
2023/01/13 03:45:11;;;;;;;1.95;1.85;;;8.50;99.90;;;;;;5102578;27;20398;-73
2023/01/13 03:47:40;;;;;;;0.10;0.10;;;8.50;99.90;;;;;;5092324;28;20150;-71
2023/01/13 03:50:19;;;;;;;4.85;3.63;;;8.40;99.90;;;;;;5104806;28;20433;-72
2023/01/13 03:52:53;;;;;;;2.40;1.20;;;8.30;99.90;;;;;;5082369;28;20062;-72
2023/01/13 03:55:27;;;;;;;2.08;1.88;;;8.40;99.90;;;;;;5099971;27;20142;-72
2023/01/13 03:58:31;;;;;;;15.50;1.25;;;8.40;99.90;;;;;;5110299;28;20047;-72
2023/01/13 04:01:01;;;;;;;2.67;2.33;;;8.40;99.90;;;;;;5024706;28;20041;-72
2023/01/13 04:03:37;;;;;;;38.83;2.13;;;8.30;99.90;;;;;;5027202;28;20091;-73
2023/01/13 04:06:29;;;;;;;1.58;1.48;;;8.30;99.90;;;;;;5057067;28;20150;-72
2023/01/13 04:09:31;;;;;;;0.10;0.10;;;8.30;99.90;;;;;;5104225;28;20053;-72
2023/01/13 04:12:23;;;;;;;0.57;0.57;;;8.30;99.90;;;;;;5082988;28;20039;-72
2023/01/13 04:14:49;;;;;;;0.43;0.43;;;8.30;99.90;;;;;;5107096;28;20100;-72
2023/01/13 04:17:15;;;;;;;0.10;0.10;;;8.20;99.90;;;;;;5075189;28;20067;-72
2023/01/13 04:19:41;;;;;;;0.25;0.25;;;8.30;99.90;;;;;;5101656;28;20035;-71
2023/01/13 04:22:06;;;;;;;0.20;0.20;;;8.30;99.90;;;;;;5106286;28;20047;-71
2023/01/13 04:24:32;;;;;;;0.95;0.95;;;8.40;99.90;;;;;;5092798;28;20076;-71
2023/01/13 04:26:57;;;;;;;0.63;0.63;;;8.40;99.90;;;;;;5091945;28;20047;-72
2023/01/13 04:29:23;;;;;;;5.35;1.95;;;8.50;99.90;;;;;;5100530;28;20044;-71
2023/01/13 04:31:48;;;;;;;0.10;0.10;;;8.60;99.90;;;;;;5082110;28;20051;-71
2023/01/13 04:34:14;;;;;;;0.47;0.47;;;8.60;99.90;;;;;;5102369;28;20040;-72
2023/01/13 04:36:40;;;;;;;0.10;0.10;;;8.70;99.90;;;;;;5089468;28;20130;-72
2023/01/13 04:39:05;;;;;;;0.10;0.10;;;8.70;99.90;;;;;;5109266;28;20501;-71
2023/01/13 04:41:56;;;;;;;0.15;0.15;;;8.70;99.90;;;;;;5088013;28;20043;-72
2023/01/13 04:44:16;;;;;;;5.47;2.65;;;8.70;99.90;;;;;;5095646;28;20519;-71
2023/01/13 04:46:42;;;;;;;0.28;0.28;;;8.80;99.90;;;;;;5109929;28;20055;-72
2023/01/13 04:49:07;;;;;;;0.10;0.10;;;8.80;99.90;;;;;;5108675;28;20595;-71
2023/01/13 04:51:33;;;;;;;0.10;0.10;;;8.80;99.90;;;;;;5090202;28;20040;-71
2023/01/13 04:53:59;;;;;;;0.30;0.30;;;8.80;99.90;;;;;;5106341;28;20099;-71
2023/01/13 04:56:24;;;;;;;0.43;0.43;;;8.80;99.90;;;;;;5098305;28;20048;-71
2023/01/13 04:58:50;;;;;;;0.63;0.63;;;8.80;99.90;;;;;;5098468;28;20119;-71
2023/01/13 05:01:15;;;;;;;0.03;0.03;;;8.80;99.90;;;;;;5110248;28;20044;-71
2023/01/13 05:03:41;;;;;;;0.08;0.08;;;8.80;99.90;;;;;;5108507;28;20089;-71
2023/01/13 05:06:06;;;;;;;0.10;0.10;;;8.80;99.90;;;;;;5084833;28;20044;-72
2023/01/13 05:08:32;;;;;;;0.50;0.47;;;8.80;99.90;;;;;;5105188;28;20399;-72
2023/01/13 05:16:58;;;;;;;0.45;0.45;;;8.80;99.90;;;;;;5108388;28;20402;-72
2023/01/13 05:19:15;;;;;;;4.75;1.95;;;8.80;99.90;;;;;;5102365;28;20130;-72
2023/01/13 05:27:09;;;;;;;0.00;0.00;;;8.90;99.90;;;;;;5103752;28;20071;-72
2023/01/13 05:29:35;;;;;;;0.65;0.65;;;8.70;99.90;;;;;;5109334;28;20467;-72
2023/01/13 05:32:01;;;;;;;1.70;1.20;;;8.80;99.90;;;;;;5107982;28;20043;-72
2023/01/13 05:34:27;;;;;;;0.32;0.32;;;8.80;99.90;;;;;;5112408;28;20610;-72
2023/01/13 05:36:52;;;;;;;0.80;0.80;;;8.80;99.90;;;;;;5082116;28;20081;-72
2023/01/13 05:39:18;;;;;;;0.20;0.20;;;8.90;99.90;;;;;;5092437;28;20498;-72
2023/01/13 05:44:27;;;;;;;;;;;8.80;99.90;;;;;;5105055;28;20076;-72
2023/01/13 05:46:53;;;;;;;0.80;0.80;;;8.90;99.90;;;;;;5103436;28;20344;-71
2023/01/13 05:49:18;;;;;;;0.10;0.10;;;8.90;99.90;;;;;;5102392;28;20448;-71
2023/01/13 05:51:44;;;;;;;5.75;2.08;;;8.80;99.90;;;;;;5110577;28;20036;-71
2023/01/13 05:54:09;;;;;;;0.10;0.10;;;8.70;99.90;;;;;;5083732;28;20073;-71
2023/01/13 05:56:35;;;;;;;0.25;0.25;;;8.70;99.90;;;;;;5081210;28;20035;-71
2023/01/13 05:59:01;;;;;;;0.10;0.10;;;8.70;99.90;;;;;;5095815;28;20040;-71
2023/01/13 06:01:26;;;;;;;0.77;0.77;;;8.60;99.90;;;;;;5100632;28;20083;-71
2023/01/13 06:03:52;;;;;;;1.60;0.90;;;8.60;99.90;;;;;;5096830;28;20036;-72
2023/01/13 06:06:17;;;;;;;1.35;1.25;;;8.60;99.90;;;;;;5102567;28;20104;-71
2023/01/13 06:08:43;;;;;;;0.55;0.55;;;8.60;99.90;;;;;;5104154;28;20071;-72
2023/01/13 06:11:08;;;;;;;6.82;2.63;;;8.60;99.90;;;;;;5090806;28;20059;-71
2023/01/13 06:13:34;;;;;;;1.08;1.08;;;8.70;99.90;;;;;;5111074;28;20320;-72
2023/01/13 06:16:00;;;;;;;5.28;2.28;;;8.60;99.90;;;;;;5099939;28;20043;-71
2023/01/13 06:18:26;;;;;;;1.00;0.75;;;8.60;99.90;;;;;;5099137;28;20552;-71
2023/01/13 06:20:52;;;;;;;0.10;0.10;;;8.60;99.90;;;;;;5105020;28;20090;-71
2023/01/13 06:23:17;;;;;;;0.10;0.10;;;8.60;99.90;;;;;;5105724;28;20032;-72
2023/01/13 06:26:01;;;;;;;1.27;1.20;;;8.60;99.90;;;;;;5092445;28;20501;-71
2023/01/13 06:28:26;;;;;;;0.00;0.00;;;8.60;99.90;;;;;;5075817;28;20463;-72
2023/01/13 06:30:56;;;;;;;0.20;0.20;;;8.70;99.90;;;;;;5090103;28;20177;-72
2023/01/13 06:33:30;;;;;;;1.25;1.20;;;8.70;99.90;;;;;;5109215;28;20068;-72
2023/01/13 06:36:01;;;;;;;1.33;1.27;;;8.70;99.90;;;;;;5082133;28;20379;-72
2023/01/13 06:38:29;;;;;;;0.20;0.20;;;8.60;99.90;;;;;;5108073;28;20044;-72
2023/01/13 06:40:55;;;;;;;0.13;0.13;;;8.60;99.90;;;;;;5094938;28;20134;-72
2023/01/13 06:43:20;;;;;;;2.30;1.95;;;8.50;99.90;;;;;;5093820;28;20118;-73
2023/01/13 06:45:50;;;;;;;0.45;0.45;;;8.40;99.90;;;;;;5106474;27;20039;-72
2023/01/13 06:48:17;;;;;;;1.35;1.33;;;8.30;99.90;;;;;;5088226;28;20056;-72
2023/01/13 06:50:43;;;;;;;9.95;1.95;;;8.30;99.90;;;;;;5109882;28;20502;-73
2023/01/13 06:53:09;;;;;;;0.65;0.63;;;8.30;99.90;;;;;;5099517;28;20044;-72
2023/01/13 06:55:35;;;;;;;0.10;0.10;;;8.30;99.90;;;;;;5092029;28;20040;-72
2023/01/13 06:58:00;;;;;;;1.55;0.95;;;8.30;99.90;;;;;;5101399;28;20051;-71
2023/01/13 07:00:26;;;;;;;0.43;0.43;;;8.20;99.90;;;;;;5101811;27;20092;-72
2023/01/13 07:02:52;;;;;;;0.10;0.10;;;8.30;99.90;;;;;;5108233;28;20123;-72
2023/01/13 07:05:18;;;;;;;0.50;0.50;;;8.30;99.90;;;;;;5093098;28;20075;-71
2023/01/13 07:07:44;;;;;;;3.92;2.08;;;8.30;99.90;;;;;;5110186;27;20482;-72
2023/01/13 07:10:12;;;;;;;0.10;0.10;;;8.30;99.90;;;;;;5108551;27;20115;-71
2023/01/13 07:15:25;;;;;;;0.10;0.10;;;8.40;99.90;;;;;;5092524;28;20048;-71
2023/01/13 07:17:52;;;;;;;1.20;1.13;;;8.30;99.90;;;;;;5082032;28;20131;-71
2023/01/13 07:20:18;;;;;;;0.82;0.82;;;8.40;99.90;;;;;;5105698;28;20057;-72
2023/01/13 07:22:44;;;;;;;0.65;0.65;;;8.40;99.90;;;;;;5110119;28;20475;-72
2023/01/13 07:25:10;;;;;;;0.08;0.08;;;8.40;99.90;;;;;;5106264;28;20117;-72
2023/01/13 07:27:36;;;;;;;0.25;0.25;;;8.40;99.90;;;;;;5080401;28;20039;-71
2023/01/13 07:30:03;;;;;;;0.57;0.57;;;8.50;99.90;;;;;;5104309;28;20139;-71
2023/01/13 07:32:31;;;;;;;0.10;0.10;;;8.50;99.90;;;;;;5098651;28;20126;-72
2023/01/13 07:35:03;;;;;;;0.32;0.32;;;8.50;99.90;;;;;;5106806;28;20047;-74
2023/01/13 07:37:29;;;;;;;0.82;0.82;;;8.50;99.90;;;;;;5083553;28;20045;-74
2023/01/13 07:39:54;;;;;;;1.63;1.55;;;8.60;99.90;;;;;;5075492;28;20202;-73
2023/01/13 07:45:05;;;;;;;1.65;1.38;;;8.60;99.90;;;;;;5090399;28;20504;-72
2023/01/13 07:47:30;;;;;;;0.00;0.00;;;8.60;99.90;;;;;;5091264;28;20492;-75
2023/01/13 07:49:56;;;;;;;1.10;1.08;;;8.70;99.90;;;;;;5091515;28;20047;-73
2023/01/13 07:52:21;;;;;;;0.22;0.22;;;8.70;99.90;;;;;;5101248;28;20409;-73
2023/01/13 07:54:48;;;;;;;0.10;0.10;;;8.70;99.90;;;;;;5085540;28;20105;-73
2023/01/13 07:57:14;;;;;;;1.10;0.52;;;8.70;99.90;;;;;;5109246;28;20123;-73
2023/01/13 07:59:39;;;;;;;0.10;0.10;;;8.70;99.90;;;;;;5110879;28;20115;-73
2023/01/13 08:02:05;;;;;;;0.10;0.10;;;8.70;99.90;;;;;;5092206;28;20051;-72
2023/01/13 08:04:30;;;;;;;0.38;0.38;;;8.70;99.90;;;;;;5100470;28;20471;-72
2023/01/13 08:06:56;;;;;;;3.30;2.85;;;8.70;99.90;;;;;;5106245;28;20468;-72
2023/01/13 08:09:22;;;;;;;0.50;0.50;;;8.70;99.90;;;;;;5111868;28;20043;-72
2023/01/13 08:13:16;;;;;;;0.70;0.70;;;8.80;99.90;;;;;;5095831;28;20036;-72
2023/01/13 08:14:33;;;;;;;1.60;1.52;;;8.80;99.90;;;;;;5090327;28;20487;-72
2023/01/13 08:16:58;;;;;;;0.10;0.10;;;8.80;99.90;;;;;;5090972;28;20028;-72
2023/01/13 08:19:24;;;;;;;0.15;0.15;;;8.80;99.90;;;;;;5091110;28;20036;-73
2023/01/13 08:21:49;;;;;;;7.05;1.73;;;8.80;99.90;;;;;;5088389;28;20039;-73
2023/01/13 08:24:15;;;;;;;0.10;0.10;;;8.70;99.90;;;;;;5091136;27;20092;-73
2023/01/13 08:26:40;;;;;;;3.83;1.55;;;8.70;99.90;;;;;;5103097;28;20036;-73
2023/01/13 08:29:06;;;;;;;0.10;0.10;;;8.60;99.90;;;;;;5090259;28;20074;-73
2023/01/13 08:31:31;;;;;;;0.68;0.68;;;8.60;99.90;;;;;;5106542;27;20058;-73
2023/01/13 08:33:57;;;;;;;29.33;1.70;;;8.60;99.90;;;;;;5097807;28;20036;-73
2023/01/13 08:36:24;;;;;;;4.13;2.15;;;8.60;99.90;;;;;;5082501;28;20446;-74
2023/01/13 08:38:49;;;;;;;21.48;3.15;;;8.40;99.90;;;;;;5100567;28;20514;-74
2023/01/13 08:41:53;;;;;;;0.10;0.10;;;8.40;99.90;;;;;;5089945;28;20075;-74
2023/01/13 08:44:05;;;;;;;0.10;0.10;;;8.20;99.90;;;;;;5091817;28;20123;-74
2023/01/13 08:46:31;;;;;;;0.57;0.38;;;8.20;99.90;;;;;;5080833;28;20802;-70
2023/01/13 08:48:56;;;;;;;0.10;0.10;;;8.20;99.90;;;;;;5108099;28;20047;-74
2023/01/13 08:51:22;;;;;;;2.53;1.65;;;8.10;99.90;;;;;;5096040;28;20101;-75
2023/01/13 08:53:48;;;;;;;2.03;1.02;;;8.00;99.90;;;;;;5101826;28;20042;-74
2023/01/13 08:56:13;;;;;;;1.55;0.90;;;8.00;99.90;;;;;;5104580;28;20051;-76
2023/01/13 08:58:39;;;;;;;0.10;0.10;;;8.00;99.90;;;;;;5096924;28;20036;-77
2023/01/13 09:01:07;;;;;;;3.75;1.75;;;8.00;99.90;;;;;;5083646;28;20044;-76
2023/01/13 09:03:33;;;;;;;0.10;0.10;;;8.00;99.90;;;;;;5102332;28;20052;-76
2023/01/13 09:05:58;;;;;;;0.10;0.10;;;8.10;99.90;;;;;;5095677;28;20111;-78
2023/01/13 09:08:24;;;;;;;0.10;0.10;;;8.00;99.90;;;;;;5094042;28;20051;-77
2023/01/13 09:10:49;;;;;;;0.00;0.00;;;8.00;99.90;;;;;;5112693;27;20043;-78
2023/01/13 09:13:15;;;;;;;8.85;1.80;;;8.00;99.90;;;;;;5095329;28;20056;-77
2023/01/13 09:15:44;;;;;;;1.52;0.80;;;8.00;99.90;;;;;;5112663;27;20051;-78
2023/01/13 09:18:10;;;;;;;1.33;1.13;;;8.00;99.90;;;;;;5097841;28;20048;-78
2023/01/13 09:20:36;;;;;;;0.10;0.10;;;7.90;99.90;;;;;;5101396;27;20480;-76
2023/01/13 09:23:02;;;;;;;0.98;0.95;;;7.90;99.90;;;;;;5081133;28;20100;-77
2023/01/13 09:25:28;;;;;;;0.10;0.10;;;7.90;99.90;;;;;;5077217;28;20522;-77
2023/01/13 09:27:53;;;;;;;0.00;0.00;;;8.00;99.90;;;;;;5103478;28;20046;-77
2023/01/13 09:30:19;;;;;;;0.43;0.43;;;7.90;99.90;;;;;;5103032;28;20057;-77
2023/01/13 09:32:45;;;;;;;0.10;0.10;;;7.90;99.90;;;;;;5102419;28;20446;-77
2023/01/13 09:35:10;;;;;;;0.10;0.10;;;7.90;99.90;;;;;;5100741;28;20134;-76
2023/01/13 09:37:38;;;;;;;0.35;0.35;;;8.00;99.90;;;;;;5079713;27;20406;-77
2023/01/13 09:40:15;;;;;;;0.00;0.00;;;8.00;99.90;;;;;;5091090;28;20048;-77
2023/01/13 09:45:49;;;;;;;2.88;0.77;;;8.00;99.90;;;;;;5103852;27;20573;-81
2023/01/13 09:48:27;;;;;;;0.40;0.40;;;8.10;99.90;;;;;;5092479;28;20043;-80
2023/01/13 09:51:15;;;;;;;0.85;0.85;;;8.10;99.90;;;;;;5086486;27;20051;-81
2023/01/13 09:53:55;;;;;;;0.10;0.10;;;8.10;99.90;;;;;;5109433;27;20369;-80
2023/01/13 09:56:22;;;;;;;11.90;1.90;;;8.20;99.90;;;;;;5097019;28;20158;-80
2023/01/13 09:58:48;;;;;;;0.10;0.10;;;8.20;99.90;;;;;;5102045;27;20739;-80
2023/01/13 10:01:13;;;;;;;0.03;0.03;;;8.30;99.90;;;;;;5108197;28;20048;-80
2023/01/13 10:03:39;;;;;;;0.10;0.10;;;8.30;99.90;;;;;;5102778;27;20044;-80
2023/01/13 10:06:16;;;;;;;0.22;0.22;;;8.30;99.90;;;;;;5100083;27;20044;-83
2023/01/13 10:08:45;;;;;;;1.00;0.57;;;8.40;99.90;;;;;;5104958;27;20880;-80
2023/01/13 10:14:22;;;;;;;0.32;0.32;;;8.40;99.90;;;;;;5111262;28;20061;-79
2023/01/13 10:17:21;;;;;;;0.40;0.40;;;8.50;99.90;;;;;;5106567;28;20043;-79
2023/01/13 10:19:53;;;;;;;0.40;0.40;;;8.50;99.90;;;;;;5095619;28;20044;-80
2023/01/13 10:22:37;;;;;;;0.88;0.88;;;8.50;99.90;;;;;;5103302;28;20479;-79
2023/01/13 10:25:03;;;;;;;1.38;1.27;;;8.60;99.90;;;;;;5094621;28;20051;-80
2023/01/13 10:27:34;;;;;;;1.20;1.20;;;8.60;99.90;;;;;;5081825;28;20051;-80
2023/01/13 10:30:16;;;;;;;0.30;0.30;;;8.60;99.90;;;;;;5091881;28;20392;-79
2023/01/13 10:32:46;;;;;;;0.17;0.17;;;8.70;99.90;;;;;;5104465;28;20139;-79
2023/01/13 10:35:12;;;;;;;22.13;2.38;;;8.70;99.90;;;;;;5101881;28;20118;-80
2023/01/13 10:37:37;;;;;;;0.00;0.00;;;8.70;99.90;;;;;;5085936;27;20127;-79
2023/01/13 10:40:06;;;;;;;0.10;0.10;;;8.70;99.90;;;;;;5079952;28;20096;-79
2023/01/13 10:42:31;;;;;;;1.73;1.63;;;8.70;99.90;;;;;;5084791;28;20376;-79
2023/01/13 10:44:59;;;;;;;1.85;1.75;;;8.60;99.90;;;;;;5111902;28;20051;-78
2023/01/13 10:47:31;;;;;;;0.30;0.30;;;8.60;99.90;;;;;;5093707;27;20096;-77
2023/01/13 10:50:12;;;;;;;1.05;1.05;;;8.70;99.90;;;;;;5103749;27;20048;-79
2023/01/13 10:52:59;;;;;;;0.10;0.10;;;8.70;99.90;;;;;;5091566;28;20043;-77
2023/01/13 10:55:35;;;;;;;0.80;0.80;;;8.70;99.90;;;;;;5091908;28;20123;-77
2023/01/13 10:58:11;;;;;;;0.40;0.40;;;8.70;99.90;;;;;;5080697;28;20415;-77
2023/01/13 11:00:37;;;;;;;3.17;2.45;;;8.80;99.90;;;;;;5100610;28;20048;-77
2023/01/13 11:03:12;;;;;;;0.10;0.10;;;8.80;99.90;;;;;;5075516;28;20092;-77
2023/01/13 11:05:38;;;;;;;1.10;0.45;;;8.90;99.90;;;;;;5077241;28;20437;-77
2023/01/13 11:08:04;;;;;;;1.55;1.45;;;8.90;99.90;;;;;;5082142;28;20048;-77
2023/01/13 11:10:32;;;;;;;0.47;0.47;;;8.90;99.90;;;;;;5101112;27;20514;-75
2023/01/13 11:13:16;;;;;;;0.10;0.10;;;9.00;99.90;;;;;;5100720;27;20479;-71
2023/01/13 11:16:11;;;;;;;1.67;1.58;;;9.00;99.90;;;;;;5100675;28;20088;-72
2023/01/13 11:18:39;;;;;;;0.68;0.63;;;9.00;99.90;;;;;;5102902;28;20047;-70
2023/01/13 11:21:14;;;;;;;0.00;0.00;;;9.00;99.90;;;;;;5099580;28;20058;-71
2023/01/13 11:23:47;;;;;;;0.85;0.68;;;9.00;99.90;;;;;;5081694;28;20047;-74
2023/01/13 11:26:25;;;;;;;0.10;0.10;;;9.00;99.90;;;;;;5099074;28;20043;-73
2023/01/13 11:29:02;;;;;;;0.10;0.10;;;9.00;99.90;;;;;;5082559;28;20127;-74
2023/01/13 11:31:42;;;;;;;1.02;1.00;;;9.00;99.90;;;;;;5098626;28;20522;-74
2023/01/13 11:34:33;;;;;;;0.68;0.68;;;9.00;99.90;;;;;;5082600;28;20122;-74
2023/01/13 11:37:02;;;;;;;0.32;0.32;;;9.00;99.90;;;;;;5103520;28;20445;-74
2023/01/13 11:39:46;;;;;;;0.20;0.20;;;9.10;99.90;;;;;;5099191;28;20103;-74
2023/01/13 11:42:36;;;;;;;0.10;0.10;;;9.00;99.90;;;;;;5103131;28;20035;-74
2023/01/13 11:45:39;;;;;;;7.13;2.17;;;9.10;99.90;;;;;;5099640;28;20043;-75
2023/01/13 11:48:04;;;;;;;0.10;0.10;;;9.20;99.90;;;;;;5096582;28;20062;-74
2023/01/13 11:50:50;;;;;;;0.38;0.38;;;9.30;99.90;;;;;;5081186;28;20047;-74
2023/01/13 11:53:25;;;;;;;0.20;0.20;;;9.40;99.90;;;;;;5093790;27;20402;-74
2023/01/13 11:56:23;;;;;;;0.10;0.10;;;9.50;99.90;;;;;;5079259;28;20048;-74
2023/01/13 11:59:00;;;;;;;0.10;0.10;;;9.50;99.90;;;;;;5074449;28;20043;-74
2023/01/13 12:01:44;;;;;;;0.32;0.32;;;9.50;99.90;;;;;;5084376;28;20043;-74
2023/01/13 12:04:33;;;;;;;0.10;0.10;;;9.70;99.90;;;;;;5098256;28;20395;-71
2023/01/13 12:07:11;;;;;;;0.10;0.10;;;9.90;99.90;;;;;;5093931;27;20048;-71
2023/01/13 12:09:46;;;;;;;0.90;0.85;;;9.80;99.90;;;;;;5091269;28;20051;-72
2023/01/13 12:12:54;;;;;;;0.10;0.10;;;9.90;99.90;;;;;;5110563;28;20372;-72
2023/01/13 12:15:23;;;;;;;0.20;0.20;;;9.70;99.90;;;;;;5103429;28;20040;-71
2023/01/13 12:18:29;;;;;;;0.17;0.17;;;9.70;99.90;;;;;;5088462;28;20048;-71
2023/01/13 12:21:15;;;;;;;0.10;0.10;;;9.50;99.90;;;;;;5108970;27;20051;-71
2023/01/13 12:24:11;;;;;;;5.47;1.65;;;9.50;99.90;;;;;;5085396;28;20049;-71
2023/01/13 12:26:42;;;;;;;0.15;0.15;;;9.60;99.90;;;;;;5095631;28;20495;-74
2023/01/13 12:29:17;;;;;;;0.10;0.10;;;9.50;99.90;;;;;;5103672;28;20048;-73
2023/01/13 12:31:46;;;;;;;0.10;0.10;;;9.50;99.90;;;;;;5109626;28;20108;-74
2023/01/13 12:34:34;;;;;;;0.10;0.10;;;9.50;99.90;;;;;;5086721;28;20039;-72
2023/01/13 12:37:27;;;;;;;0.55;0.55;;;9.50;99.90;;;;;;5100407;28;20506;-73
2023/01/13 12:40:20;;;;;;;0.10;0.10;;;9.40;99.90;;;;;;5087237;28;20063;-72
2023/01/13 12:45:41;;;;;;;0.10;0.10;;;9.50;99.90;;;;;;5091445;28;20083;-72
2023/01/13 12:48:56;;;;;;;0.88;0.75;;;9.50;99.90;;;;;;5098054;28;20087;-72
2023/01/13 12:51:32;;;;;;;0.75;0.75;;;9.40;99.90;;;;;;5066374;28;20491;-71
2023/01/13 12:53:59;;;;;;;0.10;0.10;;;9.50;99.90;;;;;;5092139;28;20402;-71
2023/01/13 12:56:36;;;;;;;1.55;1.38;;;9.50;99.90;;;;;;5076330;28;20047;-71
2023/01/13 12:59:20;;;;;;;4.20;0.68;;;9.40;99.90;;;;;;5095802;28;20086;-72
2023/01/13 13:01:48;;;;;;;0.10;0.10;;;9.40;99.90;;;;;;5102358;28;20051;-72
2023/01/13 13:04:18;;;;;;;0.10;0.10;;;9.30;99.90;;;;;;5097454;28;20068;-70
2023/01/13 13:07:07;;;;;;;0.05;0.05;;;9.30;99.90;;;;;;5092466;28;20044;-70
2023/01/13 13:09:42;;;;;;;0.10;0.10;;;9.20;99.90;;;;;;5108473;28;20483;-70
2023/01/13 13:15:26;;;;;;;0.43;0.43;;;9.30;99.90;;;;;;5088884;28;20134;-70
2023/01/13 13:17:58;;;;;;;0.20;0.20;;;9.30;99.90;;;;;;5104668;28;20051;-71
2023/01/13 13:21:04;;;;;;;0.75;0.75;;;9.30;99.90;;;;;;5090141;28;20075;-71
2023/01/13 13:23:35;;;;;;;2.42;0.50;;;9.30;99.90;;;;;;5047526;28;20088;-70
2023/01/13 13:26:19;;;;;;;0.28;0.28;;;9.30;99.90;;;;;;5045562;28;20469;-71
2023/01/13 13:29:05;;;;;;;0.10;0.10;;;9.40;99.90;;;;;;5072079;28;20087;-71
2023/01/13 13:31:56;;;;;;;0.00;0.00;;;9.40;99.90;;;;;;5075259;28;20136;-71
2023/01/13 13:34:29;;;;;;;0.10;0.10;;;9.40;99.90;;;;;;5063589;28;20139;-72
2023/01/13 13:37:13;;;;;;;2.00;0.80;;;9.40;99.90;;;;;;5108240;28;20133;-72
2023/01/13 13:48:18;;;;;;;1.30;1.10;;;9.40;99.90;;;;;;5101123;28;20143;-74
2023/01/13 13:50:57;;;;;;;2.45;2.00;;;9.40;99.90;;;;;;5100938;28;20047;-71
2023/01/13 13:53:31;;;;;;;7.47;3.70;;;9.40;99.90;;;;;;5090621;28;20052;-71
2023/01/13 13:55:59;;;;;;;0.00;0.00;;;9.30;99.90;;;;;;5101198;28;20561;-72
2023/01/13 13:58:27;;;;;;;0.17;0.17;;;9.20;99.90;;;;;;5106347;28;20072;-72
2023/01/13 14:00:53;;;;;;;0.15;0.15;;;9.10;99.90;;;;;;5085364;28;20739;-72
2023/01/13 14:03:29;;;;;;;0.10;0.10;;;9.20;99.90;;;;;;5098801;27;20485;-75
2023/01/13 14:05:56;;;;;;;0.10;0.10;;;9.20;99.90;;;;;;5075785;28;20043;-75
2023/01/13 14:08:23;;;;;;;0.20;0.20;;;9.20;99.90;;;;;;5105578;28;20048;-75
2023/01/13 14:10:49;;;;;;;1.65;0.90;;;9.20;99.90;;;;;;5094187;28;20039;-76
2023/01/13 14:13:29;;;;;;;0.10;0.10;;;9.20;99.90;;;;;;5111601;27;20780;-76
2023/01/13 14:16:04;;;;;;;1.15;1.05;;;9.20;99.90;;;;;;5113333;28;20126;-76